<?xml version="1.0" encoding="UTF-8" standalone="no" ?>
<gpx xmlns="http://www.topografix.com/GPX/1/1" xmlns:xsi="http://www.w3.org/2001/XMLSchema-instance" xsi:schemaLocation="http://www.topografix.com/GPX/1/1 http://www.topografix.com/GPX/1/1/gpx.xsd" version="1.1" creator="VisuGPX - https://www.visugpx.com">
  <metadata>
    <name>Rando LN</name>
  </metadata>
  <trk>
    <name><![CDATA[Labastide de Virac (Mas de serret)]]></name>
    <extensions>
      <line xmlns="http://www.topografix.com/GPX/gpx_style/0/2">
        <color>00ff40</color>
        <width>4</width>
      </line>
    </extensions>
    <trkseg>
      <trkpt lat="44.40718" lon="4.39498">
        <ele>121.4</ele>
      </trkpt>
      <trkpt lat="44.40244" lon="4.39157">
        <ele>112</ele>
      </trkpt>
      <trkpt lat="44.39518" lon="4.37885">
        <ele>100.046</ele>
        <time>2015-07-28T22:57:26Z</time>
      </trkpt>
      <trkpt lat="44.39482" lon="4.37862">
        <ele>99.438</ele>
        <time>2015-07-28T22:57:46Z</time>
      </trkpt>
      <trkpt lat="44.3936" lon="4.37892">
        <ele>99.233</ele>
        <time>2015-07-28T22:58:06Z</time>
      </trkpt>
      <trkpt lat="44.39369" lon="4.37912">
        <ele>100.196</ele>
        <time>2015-07-28T22:58:26Z</time>
      </trkpt>
      <trkpt lat="44.39383" lon="4.37925">
        <ele>100.171</ele>
        <time>2015-07-28T22:58:46Z</time>
      </trkpt>
      <trkpt lat="44.39324" lon="4.38068">
        <ele>106.853</ele>
        <time>2015-07-28T22:59:06Z</time>
      </trkpt>
      <trkpt lat="44.39289" lon="4.38057">
        <ele>110.304</ele>
        <time>2015-07-28T22:59:26Z</time>
      </trkpt>
      <trkpt lat="44.3928" lon="4.38019">
        <ele>109.714</ele>
        <time>2015-07-28T22:59:46Z</time>
      </trkpt>
      <trkpt lat="44.39239" lon="4.38008">
        <ele>116.808</ele>
        <time>2015-07-28T23:00:06Z</time>
      </trkpt>
      <trkpt lat="44.39219" lon="4.3798">
        <ele>120.691</ele>
        <time>2015-07-28T23:00:26Z</time>
      </trkpt>
      <trkpt lat="44.39189" lon="4.37965">
        <ele>126.195</ele>
        <time>2015-07-28T23:00:46Z</time>
      </trkpt>
      <trkpt lat="44.39186" lon="4.37949">
        <ele>127.322</ele>
        <time>2015-07-28T23:01:06Z</time>
      </trkpt>
      <trkpt lat="44.39113" lon="4.37911">
        <ele>134.32</ele>
        <time>2015-07-28T23:01:26Z</time>
      </trkpt>
      <trkpt lat="44.39116" lon="4.37984">
        <ele>139.462</ele>
        <time>2015-07-28T23:01:46Z</time>
      </trkpt>
      <trkpt lat="44.39137" lon="4.38029">
        <ele>135.577</ele>
        <time>2015-07-28T23:02:06Z</time>
      </trkpt>
      <trkpt lat="44.39128" lon="4.38051">
        <ele>138.58</ele>
        <time>2015-07-28T23:02:26Z</time>
      </trkpt>
      <trkpt lat="44.39139" lon="4.3814">
        <ele>143.075</ele>
        <time>2015-07-28T23:02:46Z</time>
      </trkpt>
      <trkpt lat="44.39064" lon="4.38169">
        <ele>158.853</ele>
        <time>2015-07-28T23:03:06Z</time>
      </trkpt>
      <trkpt lat="44.38999" lon="4.38127">
        <ele>164.104</ele>
        <time>2015-07-28T23:03:26Z</time>
      </trkpt>
      <trkpt lat="44.38947" lon="4.38102">
        <ele>168.714</ele>
        <time>2015-07-28T23:03:46Z</time>
      </trkpt>
      <trkpt lat="44.38891" lon="4.38114">
        <ele>168.008</ele>
        <time>2015-07-28T23:04:06Z</time>
      </trkpt>
      <trkpt lat="44.38866" lon="4.38097">
        <ele>166.851</ele>
        <time>2015-07-28T23:04:26Z</time>
      </trkpt>
      <trkpt lat="44.38762" lon="4.38071">
        <ele>163.595</ele>
        <time>2015-07-28T23:04:46Z</time>
      </trkpt>
      <trkpt lat="44.38668" lon="4.38019">
        <ele>164.722</ele>
        <time>2015-07-28T23:05:06Z</time>
      </trkpt>
      <trkpt lat="44.38587" lon="4.37937">
        <ele>168.67</ele>
        <time>2015-07-28T23:05:26Z</time>
      </trkpt>
      <trkpt lat="44.38531" lon="4.37845">
        <ele>167.642</ele>
        <time>2015-07-28T23:05:46Z</time>
      </trkpt>
      <trkpt lat="44.3851" lon="4.37797">
        <ele>167.617</ele>
        <time>2015-07-28T23:06:06Z</time>
      </trkpt>
      <trkpt lat="44.38326" lon="4.3765">
        <ele>158.26</ele>
        <time>2015-07-28T23:06:26Z</time>
      </trkpt>
      <trkpt lat="44.38316" lon="4.37613">
        <ele>155.775</ele>
        <time>2015-07-28T23:06:46Z</time>
      </trkpt>
      <trkpt lat="44.38277" lon="4.37529">
        <ele>159.068</ele>
        <time>2015-07-28T23:07:06Z</time>
      </trkpt>
      <trkpt lat="44.38253" lon="4.37528">
        <ele>159.942</ele>
        <time>2015-07-28T23:07:26Z</time>
      </trkpt>
      <trkpt lat="44.38172" lon="4.37459">
        <ele>163.626</ele>
        <time>2015-07-28T23:07:46Z</time>
      </trkpt>
      <trkpt lat="44.38136" lon="4.37513">
        <ele>162.308</ele>
        <time>2015-07-28T23:08:06Z</time>
      </trkpt>
      <trkpt lat="44.38072" lon="4.37482">
        <ele>159.582</ele>
        <time>2015-07-28T23:08:26Z</time>
      </trkpt>
      <trkpt lat="44.38032" lon="4.37437">
        <ele>162.246</ele>
        <time>2015-07-28T23:08:46Z</time>
      </trkpt>
      <trkpt lat="44.3801" lon="4.37428">
        <ele>161.193</ele>
        <time>2015-07-28T23:09:06Z</time>
      </trkpt>
      <trkpt lat="44.37977" lon="4.37488">
        <ele>156.231</ele>
        <time>2015-07-28T23:09:26Z</time>
      </trkpt>
      <trkpt lat="44.37978" lon="4.37526">
        <ele>156.283</ele>
        <time>2015-07-28T23:09:46Z</time>
      </trkpt>
      <trkpt lat="44.37921" lon="4.37564">
        <ele>163.898</ele>
        <time>2015-07-28T23:10:06Z</time>
      </trkpt>
      <trkpt lat="44.37903" lon="4.37616">
        <ele>164.921</ele>
        <time>2015-07-28T23:10:26Z</time>
      </trkpt>
      <trkpt lat="44.37877" lon="4.3761">
        <ele>165.686</ele>
        <time>2015-07-28T23:10:46Z</time>
      </trkpt>
      <trkpt lat="44.37841" lon="4.37587">
        <ele>165.075</ele>
        <time>2015-07-28T23:11:06Z</time>
      </trkpt>
      <trkpt lat="44.37819" lon="4.37565">
        <ele>166.628</ele>
        <time>2015-07-28T23:11:26Z</time>
      </trkpt>
      <trkpt lat="44.37806" lon="4.37535">
        <ele>168.02</ele>
        <time>2015-07-28T23:11:46Z</time>
      </trkpt>
      <trkpt lat="44.37669" lon="4.37477">
        <ele>171.008</ele>
        <time>2015-07-28T23:12:06Z</time>
      </trkpt>
      <trkpt lat="44.37657" lon="4.37486">
        <ele>172.133</ele>
        <time>2015-07-28T23:12:26Z</time>
      </trkpt>
      <trkpt lat="44.37618" lon="4.37489">
        <ele>176.577</ele>
        <time>2015-07-28T23:12:46Z</time>
      </trkpt>
      <trkpt lat="44.37566" lon="4.37476">
        <ele>181.224</ele>
        <time>2015-07-28T23:13:06Z</time>
      </trkpt>
      <trkpt lat="44.37487" lon="4.3745">
        <ele>188.052</ele>
        <time>2015-07-28T23:13:26Z</time>
      </trkpt>
      <trkpt lat="44.37425" lon="4.37558">
        <ele>200.784</ele>
        <time>2015-07-28T23:13:46Z</time>
      </trkpt>
      <trkpt lat="44.37368" lon="4.37606">
        <ele>203.259</ele>
        <time>2015-07-28T23:14:06Z</time>
      </trkpt>
      <trkpt lat="44.37362" lon="4.37623">
        <ele>203.982</ele>
        <time>2015-07-28T23:14:26Z</time>
      </trkpt>
      <trkpt lat="44.37342" lon="4.37658">
        <ele>203.457</ele>
        <time>2015-07-28T23:14:46Z</time>
      </trkpt>
      <trkpt lat="44.37306" lon="4.37702">
        <ele>200.035</ele>
        <time>2015-07-28T23:15:06Z</time>
      </trkpt>
      <trkpt lat="44.37266" lon="4.37766">
        <ele>198.186</ele>
        <time>2015-07-28T23:15:26Z</time>
      </trkpt>
      <trkpt lat="44.37235" lon="4.3785">
        <ele>204.514</ele>
        <time>2015-07-28T23:15:46Z</time>
      </trkpt>
      <trkpt lat="44.37208" lon="4.37899">
        <ele>208.208</ele>
        <time>2015-07-28T23:16:06Z</time>
      </trkpt>
      <trkpt lat="44.37174" lon="4.3792">
        <ele>213.699</ele>
        <time>2015-07-28T23:16:26Z</time>
      </trkpt>
      <trkpt lat="44.37164" lon="4.37984">
        <ele>221.233</ele>
        <time>2015-07-28T23:16:46Z</time>
      </trkpt>
      <trkpt lat="44.3714" lon="4.38031">
        <ele>229.26</ele>
        <time>2015-07-28T23:17:06Z</time>
      </trkpt>
      <trkpt lat="44.37107" lon="4.38059">
        <ele>233.748</ele>
        <time>2015-07-28T23:17:26Z</time>
      </trkpt>
      <trkpt lat="44.3708" lon="4.38072">
        <ele>236.64</ele>
        <time>2015-07-28T23:17:46Z</time>
      </trkpt>
      <trkpt lat="44.37081" lon="4.38144">
        <ele>241.025</ele>
        <time>2015-07-28T23:18:06Z</time>
      </trkpt>
      <trkpt lat="44.37066" lon="4.38205">
        <ele>241.088</ele>
        <time>2015-07-28T23:18:26Z</time>
      </trkpt>
      <trkpt lat="44.3704" lon="4.38247">
        <ele>242.933</ele>
        <time>2015-07-28T23:18:46Z</time>
      </trkpt>
      <trkpt lat="44.37008" lon="4.38318">
        <ele>245.887</ele>
        <time>2015-07-28T23:19:06Z</time>
      </trkpt>
      <trkpt lat="44.36963" lon="4.3844">
        <ele>247.842</ele>
        <time>2015-07-28T23:19:26Z</time>
      </trkpt>
      <trkpt lat="44.36934" lon="4.3847">
        <ele>246.326</ele>
        <time>2015-07-28T23:19:46Z</time>
      </trkpt>
      <trkpt lat="44.36905" lon="4.38515">
        <ele>243.208</ele>
        <time>2015-07-28T23:20:06Z</time>
      </trkpt>
      <trkpt lat="44.36871" lon="4.38488">
        <ele>237.884</ele>
        <time>2015-07-28T23:20:26Z</time>
      </trkpt>
      <trkpt lat="44.36831" lon="4.38469">
        <ele>232.128</ele>
        <time>2015-07-28T23:20:46Z</time>
      </trkpt>
      <trkpt lat="44.3673" lon="4.38438">
        <ele>223.565</ele>
        <time>2015-07-28T23:21:06Z</time>
      </trkpt>
      <trkpt lat="44.36684" lon="4.38454">
        <ele>214.483</ele>
        <time>2015-07-28T23:21:26Z</time>
      </trkpt>
      <trkpt lat="44.36616" lon="4.38445">
        <ele>211.355</ele>
        <time>2015-07-28T23:21:46Z</time>
      </trkpt>
      <trkpt lat="44.36602" lon="4.3845">
        <ele>209.75</ele>
        <time>2015-07-28T23:22:06Z</time>
      </trkpt>
      <trkpt lat="44.36556" lon="4.38528">
        <ele>206.143</ele>
        <time>2015-07-28T23:22:26Z</time>
      </trkpt>
      <trkpt lat="44.36522" lon="4.38536">
        <ele>207.518</ele>
        <time>2015-07-28T23:22:46Z</time>
      </trkpt>
      <trkpt lat="44.36459" lon="4.38568">
        <ele>215.346</ele>
        <time>2015-07-28T23:23:06Z</time>
      </trkpt>
      <trkpt lat="44.36417" lon="4.38563">
        <ele>215.588</ele>
        <time>2015-07-28T23:23:26Z</time>
      </trkpt>
      <trkpt lat="44.36339" lon="4.38588">
        <ele>222.816</ele>
        <time>2015-07-28T23:23:46Z</time>
      </trkpt>
      <trkpt lat="44.36322" lon="4.38555">
        <ele>221.708</ele>
        <time>2015-07-28T23:24:06Z</time>
      </trkpt>
      <trkpt lat="44.36288" lon="4.38527">
        <ele>223.57</ele>
        <time>2015-07-28T23:24:26Z</time>
      </trkpt>
      <trkpt lat="44.36244" lon="4.38506">
        <ele>225.274</ele>
        <time>2015-07-28T23:24:46Z</time>
      </trkpt>
      <trkpt lat="44.36168" lon="4.38515">
        <ele>229.281</ele>
        <time>2015-07-28T23:25:06Z</time>
      </trkpt>
      <trkpt lat="44.36067" lon="4.3851">
        <ele>234.269</ele>
        <time>2015-07-28T23:25:26Z</time>
      </trkpt>
      <trkpt lat="44.36033" lon="4.38481">
        <ele>234.071</ele>
        <time>2015-07-28T23:25:46Z</time>
      </trkpt>
      <trkpt lat="44.36008" lon="4.38484">
        <ele>235.566</ele>
        <time>2015-07-28T23:26:06Z</time>
      </trkpt>
      <trkpt lat="44.35995" lon="4.38523">
        <ele>238.529</ele>
        <time>2015-07-28T23:26:26Z</time>
      </trkpt>
      <trkpt lat="44.36019" lon="4.38589">
        <ele>244.894</ele>
        <time>2015-07-28T23:26:46Z</time>
      </trkpt>
      <trkpt lat="44.36018" lon="4.38645">
        <ele>247.774</ele>
        <time>2015-07-28T23:27:06Z</time>
      </trkpt>
      <trkpt lat="44.35989" lon="4.38761">
        <ele>244.956</ele>
        <time>2015-07-28T23:27:26Z</time>
      </trkpt>
      <trkpt lat="44.35991" lon="4.3881">
        <ele>242.521</ele>
        <time>2015-07-28T23:27:46Z</time>
      </trkpt>
      <trkpt lat="44.36031" lon="4.38846">
        <ele>247.408</ele>
        <time>2015-07-28T23:28:06Z</time>
      </trkpt>
      <trkpt lat="44.36033" lon="4.38946">
        <ele>240.183</ele>
        <time>2015-07-28T23:28:26Z</time>
      </trkpt>
      <trkpt lat="44.36009" lon="4.39017">
        <ele>234.417</ele>
        <time>2015-07-28T23:28:46Z</time>
      </trkpt>
      <trkpt lat="44.35993" lon="4.39079">
        <ele>231.244</ele>
        <time>2015-07-28T23:29:06Z</time>
      </trkpt>
      <trkpt lat="44.35997" lon="4.39147">
        <ele>230.552</ele>
        <time>2015-07-28T23:29:26Z</time>
      </trkpt>
      <trkpt lat="44.35976" lon="4.39174">
        <ele>228.024</ele>
        <time>2015-07-28T23:29:46Z</time>
      </trkpt>
      <trkpt lat="44.35938" lon="4.39176">
        <ele>226.259</ele>
        <time>2015-07-28T23:30:06Z</time>
      </trkpt>
      <trkpt lat="44.35909" lon="4.39217">
        <ele>229.722</ele>
        <time>2015-07-28T23:30:26Z</time>
      </trkpt>
      <trkpt lat="44.35905" lon="4.39279">
        <ele>229.257</ele>
        <time>2015-07-28T23:30:46Z</time>
      </trkpt>
      <trkpt lat="44.35866" lon="4.39386">
        <ele>224.939</ele>
        <time>2015-07-28T23:31:06Z</time>
      </trkpt>
      <trkpt lat="44.35814" lon="4.39425">
        <ele>223.901</ele>
        <time>2015-07-28T23:31:26Z</time>
      </trkpt>
      <trkpt lat="44.35676" lon="4.39578">
        <ele>229.321</ele>
        <time>2015-07-28T23:31:46Z</time>
      </trkpt>
      <trkpt lat="44.35572" lon="4.39626">
        <ele>223.208</ele>
        <time>2015-07-28T23:32:06Z</time>
      </trkpt>
      <trkpt lat="44.3554" lon="4.3968">
        <ele>225.689</ele>
        <time>2015-07-28T23:32:26Z</time>
      </trkpt>
      <trkpt lat="44.35485" lon="4.39717">
        <ele>223.293</ele>
        <time>2015-07-28T23:32:46Z</time>
      </trkpt>
      <trkpt lat="44.35466" lon="4.3978">
        <ele>229.97</ele>
        <time>2015-07-28T23:33:06Z</time>
      </trkpt>
      <trkpt lat="44.35438" lon="4.39842">
        <ele>228.488</ele>
        <time>2015-07-28T23:33:26Z</time>
      </trkpt>
      <trkpt lat="44.3542" lon="4.39918">
        <ele>227.76</ele>
        <time>2015-07-28T23:33:46Z</time>
      </trkpt>
      <trkpt lat="44.35407" lon="4.39927">
        <ele>227.445</ele>
        <time>2015-07-28T23:34:06Z</time>
      </trkpt>
      <trkpt lat="44.35341" lon="4.39918">
        <ele>229.428</ele>
        <time>2015-07-28T23:34:26Z</time>
      </trkpt>
      <trkpt lat="44.35261" lon="4.39953">
        <ele>240.983</ele>
        <time>2015-07-28T23:34:46Z</time>
      </trkpt>
      <trkpt lat="44.35218" lon="4.4">
        <ele>242.071</ele>
        <time>2015-07-28T23:35:06Z</time>
      </trkpt>
      <trkpt lat="44.35206" lon="4.40044">
        <ele>245.441</ele>
        <time>2015-07-28T23:35:26Z</time>
      </trkpt>
      <trkpt lat="44.35158" lon="4.40066">
        <ele>248.715</ele>
        <time>2015-07-28T23:35:46Z</time>
      </trkpt>
      <trkpt lat="44.35142" lon="4.40117">
        <ele>254.208</ele>
        <time>2015-07-28T23:36:06Z</time>
      </trkpt>
      <trkpt lat="44.35136" lon="4.40157">
        <ele>257.933</ele>
        <time>2015-07-28T23:36:26Z</time>
      </trkpt>
      <trkpt lat="44.3509" lon="4.40236">
        <ele>257.617</ele>
        <time>2015-07-28T23:36:46Z</time>
      </trkpt>
      <trkpt lat="44.35101" lon="4.4033">
        <ele>251.014</ele>
        <time>2015-07-28T23:37:06Z</time>
      </trkpt>
      <trkpt lat="44.35122" lon="4.40388">
        <ele>246.972</ele>
        <time>2015-07-28T23:37:26Z</time>
      </trkpt>
      <trkpt lat="44.35154" lon="4.40422">
        <ele>240.844</ele>
        <time>2015-07-28T23:37:46Z</time>
      </trkpt>
      <trkpt lat="44.35166" lon="4.40476">
        <ele>241.449</ele>
        <time>2015-07-28T23:38:06Z</time>
      </trkpt>
      <trkpt lat="44.35191" lon="4.4051">
        <ele>239.872</ele>
        <time>2015-07-28T23:38:26Z</time>
      </trkpt>
      <trkpt lat="44.35245" lon="4.40524">
        <ele>240.757</ele>
        <time>2015-07-28T23:38:46Z</time>
      </trkpt>
      <trkpt lat="44.3526" lon="4.406">
        <ele>241.748</ele>
        <time>2015-07-28T23:39:06Z</time>
      </trkpt>
      <trkpt lat="44.35275" lon="4.40725">
        <ele>244.961</ele>
        <time>2015-07-28T23:39:26Z</time>
      </trkpt>
      <trkpt lat="44.35323" lon="4.40751">
        <ele>246.017</ele>
        <time>2015-07-28T23:39:46Z</time>
      </trkpt>
      <trkpt lat="44.35381" lon="4.40757">
        <ele>244.108</ele>
        <time>2015-07-28T23:40:06Z</time>
      </trkpt>
      <trkpt lat="44.35426" lon="4.4078">
        <ele>250.78</ele>
        <time>2015-07-28T23:40:26Z</time>
      </trkpt>
      <trkpt lat="44.35463" lon="4.40818">
        <ele>254.854</ele>
        <time>2015-07-28T23:40:46Z</time>
      </trkpt>
      <trkpt lat="44.35507" lon="4.40836">
        <ele>260.081</ele>
        <time>2015-07-28T23:41:06Z</time>
      </trkpt>
      <trkpt lat="44.35507" lon="4.40881">
        <ele>260.119</ele>
        <time>2015-07-28T23:41:26Z</time>
      </trkpt>
      <trkpt lat="44.3552" lon="4.40914">
        <ele>262.161</ele>
        <time>2015-07-28T23:41:46Z</time>
      </trkpt>
      <trkpt lat="44.35539" lon="4.40936">
        <ele>268.036</ele>
        <time>2015-07-28T23:42:06Z</time>
      </trkpt>
      <trkpt lat="44.35533" lon="4.40973">
        <ele>274.489</ele>
        <time>2015-07-28T23:42:26Z</time>
      </trkpt>
      <trkpt lat="44.35479" lon="4.40995">
        <ele>276.964</ele>
        <time>2015-07-28T23:42:46Z</time>
      </trkpt>
      <trkpt lat="44.35447" lon="4.41012">
        <ele>280.159</ele>
        <time>2015-07-28T23:43:06Z</time>
      </trkpt>
      <trkpt lat="44.3544" lon="4.41225">
        <ele>281.003</ele>
        <time>2015-07-28T23:43:26Z</time>
      </trkpt>
      <trkpt lat="44.35444" lon="4.41259">
        <ele>281.023</ele>
        <time>2015-07-28T23:43:46Z</time>
      </trkpt>
      <trkpt lat="44.35435" lon="4.41298">
        <ele>280.708</ele>
        <time>2015-07-28T23:44:06Z</time>
      </trkpt>
      <trkpt lat="44.35426" lon="4.41415">
        <ele>276.481</ele>
        <time>2015-07-28T23:44:26Z</time>
      </trkpt>
      <trkpt lat="44.35427" lon="4.41457">
        <ele>276.615</ele>
        <time>2015-07-28T23:44:46Z</time>
      </trkpt>
      <trkpt lat="44.35454" lon="4.41498">
        <ele>279.392</ele>
        <time>2015-07-28T23:45:06Z</time>
      </trkpt>
      <trkpt lat="44.35437" lon="4.4153">
        <ele>279.84</ele>
        <time>2015-07-28T23:45:26Z</time>
      </trkpt>
      <trkpt lat="44.35443" lon="4.41575">
        <ele>280.982</ele>
        <time>2015-07-28T23:45:46Z</time>
      </trkpt>
      <trkpt lat="44.35441" lon="4.4163">
        <ele>279.297</ele>
        <time>2015-07-28T23:46:06Z</time>
      </trkpt>
      <trkpt lat="44.3542" lon="4.41676">
        <ele>277.75</ele>
        <time>2015-07-28T23:46:26Z</time>
      </trkpt>
      <trkpt lat="44.35391" lon="4.41717">
        <ele>275.275</ele>
        <time>2015-07-28T23:46:46Z</time>
      </trkpt>
      <trkpt lat="44.35386" lon="4.41923">
        <ele>271.623</ele>
        <time>2015-07-28T23:47:06Z</time>
      </trkpt>
      <trkpt lat="44.35378" lon="4.42071">
        <ele>273.083</ele>
        <time>2015-07-28T23:47:26Z</time>
      </trkpt>
      <trkpt lat="44.3534" lon="4.42204">
        <ele>275.611</ele>
        <time>2015-07-28T23:47:46Z</time>
      </trkpt>
      <trkpt lat="44.35338" lon="4.42237">
        <ele>275.408</ele>
        <time>2015-07-28T23:48:06Z</time>
      </trkpt>
      <trkpt lat="44.35352" lon="4.42398">
        <ele>270.938</ele>
        <time>2015-07-28T23:48:26Z</time>
      </trkpt>
      <trkpt lat="44.3535" lon="4.4248">
        <ele>265.542</ele>
        <time>2015-07-28T23:48:46Z</time>
      </trkpt>
      <trkpt lat="44.35351" lon="4.42575">
        <ele>257.859</ele>
        <time>2015-07-28T23:49:06Z</time>
      </trkpt>
      <trkpt lat="44.35363" lon="4.42696">
        <ele>257.957</ele>
        <time>2015-07-28T23:49:26Z</time>
      </trkpt>
      <trkpt lat="44.35376" lon="4.42708">
        <ele>257.329</ele>
        <time>2015-07-28T23:49:46Z</time>
      </trkpt>
      <trkpt lat="44.35383" lon="4.42779">
        <ele>261.234</ele>
        <time>2015-07-28T23:50:06Z</time>
      </trkpt>
      <trkpt lat="44.35395" lon="4.42851">
        <ele>262.497</ele>
        <time>2015-07-28T23:50:26Z</time>
      </trkpt>
      <trkpt lat="44.35448" lon="4.42877">
        <ele>266.712</ele>
        <time>2015-07-28T23:50:46Z</time>
      </trkpt>
      <trkpt lat="44.35464" lon="4.4291">
        <ele>269.325</ele>
        <time>2015-07-28T23:51:06Z</time>
      </trkpt>
      <trkpt lat="44.35492" lon="4.42992">
        <ele>274.126</ele>
        <time>2015-07-28T23:51:26Z</time>
      </trkpt>
      <trkpt lat="44.35499" lon="4.43047">
        <ele>274.908</ele>
        <time>2015-07-28T23:51:46Z</time>
      </trkpt>
      <trkpt lat="44.35546" lon="4.4315">
        <ele>272.108</ele>
        <time>2015-07-28T23:52:06Z</time>
      </trkpt>
      <trkpt lat="44.35566" lon="4.43219">
        <ele>270.698</ele>
        <time>2015-07-28T23:52:26Z</time>
      </trkpt>
      <trkpt lat="44.35599" lon="4.43291">
        <ele>266.272</ele>
        <time>2015-07-28T23:52:46Z</time>
      </trkpt>
      <trkpt lat="44.35587" lon="4.43299">
        <ele>264.629</ele>
        <time>2015-07-28T23:53:06Z</time>
      </trkpt>
      <trkpt lat="44.35603" lon="4.4335">
        <ele>265.187</ele>
        <time>2015-07-28T23:53:26Z</time>
      </trkpt>
      <trkpt lat="44.35607" lon="4.43382">
        <ele>265.039</ele>
        <time>2015-07-28T23:53:46Z</time>
      </trkpt>
      <trkpt lat="44.35593" lon="4.43401">
        <ele>264.124</ele>
        <time>2015-07-28T23:54:06Z</time>
      </trkpt>
      <trkpt lat="44.35599" lon="4.43426">
        <ele>264.367</ele>
        <time>2015-07-28T23:54:26Z</time>
      </trkpt>
      <trkpt lat="44.35602" lon="4.43476">
        <ele>266.162</ele>
        <time>2015-07-28T23:54:46Z</time>
      </trkpt>
      <trkpt lat="44.3561" lon="4.43503">
        <ele>267.014</ele>
        <time>2015-07-28T23:55:06Z</time>
      </trkpt>
      <trkpt lat="44.35626" lon="4.43631">
        <ele>265.854</ele>
        <time>2015-07-28T23:55:26Z</time>
      </trkpt>
      <trkpt lat="44.35618" lon="4.43665">
        <ele>265.109</ele>
        <time>2015-07-28T23:55:46Z</time>
      </trkpt>
      <trkpt lat="44.356" lon="4.43688">
        <ele>263.508</ele>
        <time>2015-07-28T23:56:06Z</time>
      </trkpt>
      <trkpt lat="44.35592" lon="4.43704">
        <ele>263.747</ele>
        <time>2015-07-28T23:56:26Z</time>
      </trkpt>
      <trkpt lat="44.35573" lon="4.4371">
        <ele>263.581</ele>
        <time>2015-07-28T23:56:46Z</time>
      </trkpt>
      <trkpt lat="44.35556" lon="4.43703">
        <ele>262.688</ele>
        <time>2015-07-28T23:57:06Z</time>
      </trkpt>
      <trkpt lat="44.35511" lon="4.43709">
        <ele>263.226</ele>
        <time>2015-07-28T23:57:26Z</time>
      </trkpt>
      <trkpt lat="44.35467" lon="4.43751">
        <ele>265.388</ele>
        <time>2015-07-28T23:57:46Z</time>
      </trkpt>
      <trkpt lat="44.35433" lon="4.43803">
        <ele>267.123</ele>
        <time>2015-07-28T23:58:06Z</time>
      </trkpt>
      <trkpt lat="44.35419" lon="4.43924">
        <ele>269.486</ele>
        <time>2015-07-28T23:58:26Z</time>
      </trkpt>
      <trkpt lat="44.35417" lon="4.44078">
        <ele>272.041</ele>
        <time>2015-07-28T23:58:46Z</time>
      </trkpt>
      <trkpt lat="44.3543" lon="4.44202">
        <ele>268.971</ele>
        <time>2015-07-28T23:59:06Z</time>
      </trkpt>
      <trkpt lat="44.35414" lon="4.44237">
        <ele>267.441</ele>
        <time>2015-07-28T23:59:26Z</time>
      </trkpt>
      <trkpt lat="44.35407" lon="4.44291">
        <ele>267.815</ele>
        <time>2015-07-28T23:59:46Z</time>
      </trkpt>
      <trkpt lat="44.35396" lon="4.44324">
        <ele>266.708</ele>
        <time>2015-07-29T00:00:06Z</time>
      </trkpt>
      <trkpt lat="44.35387" lon="4.44366">
        <ele>264.253</ele>
        <time>2015-07-29T00:00:26Z</time>
      </trkpt>
      <trkpt lat="44.3537" lon="4.44395">
        <ele>260.467</ele>
        <time>2015-07-29T00:00:46Z</time>
      </trkpt>
      <trkpt lat="44.35323" lon="4.44524">
        <ele>256.134</ele>
        <time>2015-07-29T00:01:06Z</time>
      </trkpt>
      <trkpt lat="44.35317" lon="4.44549">
        <ele>256.072</ele>
        <time>2015-07-29T00:01:26Z</time>
      </trkpt>
      <trkpt lat="44.35288" lon="4.44584">
        <ele>257.444</ele>
        <time>2015-07-29T00:01:46Z</time>
      </trkpt>
      <trkpt lat="44.35273" lon="4.44612">
        <ele>259.599</ele>
        <time>2015-07-29T00:02:06Z</time>
      </trkpt>
      <trkpt lat="44.3529" lon="4.44734">
        <ele>260.322</ele>
        <time>2015-07-29T00:02:26Z</time>
      </trkpt>
      <trkpt lat="44.35287" lon="4.44869">
        <ele>262.637</ele>
        <time>2015-07-29T00:02:46Z</time>
      </trkpt>
      <trkpt lat="44.3526" lon="4.44935">
        <ele>262.644</ele>
        <time>2015-07-29T00:03:06Z</time>
      </trkpt>
      <trkpt lat="44.35249" lon="4.45012">
        <ele>259.005</ele>
        <time>2015-07-29T00:03:26Z</time>
      </trkpt>
      <trkpt lat="44.35208" lon="4.45093">
        <ele>256.015</ele>
        <time>2015-07-29T00:03:46Z</time>
      </trkpt>
      <trkpt lat="44.35173" lon="4.45135">
        <ele>252.808</ele>
        <time>2015-07-29T00:04:06Z</time>
      </trkpt>
      <trkpt lat="44.35148" lon="4.45215">
        <ele>257.42</ele>
        <time>2015-07-29T00:04:26Z</time>
      </trkpt>
      <trkpt lat="44.3512" lon="4.45244">
        <ele>257.394</ele>
        <time>2015-07-29T00:04:46Z</time>
      </trkpt>
      <trkpt lat="44.35097" lon="4.45325">
        <ele>255.791</ele>
        <time>2015-07-29T00:05:06Z</time>
      </trkpt>
    </trkseg>
  </trk>
</gpx>